首页
METAR-TAF:

METAR-TAF

机场 :

亞庇國際機場

亞庇, 马来西亚

纬度: 05-56N, 经度: 116-03E, 海拔: 3米

当前天气观测

该预报发布于18分钟前的05:30 UTC
风速3节,风向西南,在西之间变化
温度 31°C
湿度 71%
气压 1007 hPa
能见度10公里或以上
少量云层高于1400英尺

METAR: WBKK 150530Z 23003KT 190V280 9999 FEW014 31/25 Q1007 NOSIG

时间: 13:48 (05:48 UTC)

预报

该预报发布于48分钟前的05:00 UTC
预报有效从15日的 06点(UTC)到 16日的 06点(UTC)
风速5节,风向北转西北
能见度10公里或以上
少量云层高于1400英尺
成为
从 15日的 10点(UTC)到 15日的 12点(UTC)
风速6节,风向东转东南

TAF: WBKK 150500Z 1506/1606 33005KT 9999 FEW014 BECMG 1510/1512 11006KT

超过4000个机场的气象观测和天气预报(METAR&TAF报告)。

可查询的气象台以黄色和红色小点在地图上表示。

将鼠标移到小点上方,可查看气象台名称。

然后点击查看天气观测和预报。

如需切换地图:点击带黑十字的绿色按钮放大地图;点击带横线的绿色按钮缩小地图;或者点击绿色箭头查看邻近地区的地图。


METAR-TAF: